createdAt,value
2018-07-06T00:00:03.366Z,18.78
2018-07-06T00:01:30.540Z,18.78
2018-07-06T00:02:56.831Z,18.80
2018-07-06T00:04:24.409Z,18.82
2018-07-06T00:05:51.454Z,18.82
2018-07-06T00:07:18.350Z,18.79
2018-07-06T00:08:46.946Z,18.76
2018-07-06T00:10:13.263Z,18.78
2018-07-06T00:11:41.848Z,18.79
2018-07-06T00:13:08.615Z,18.80
2018-07-06T00:14:34.837Z,18.77
2018-07-06T00:16:02.952Z,18.73
2018-07-06T00:17:28.934Z,18.69
2018-07-06T00:18:57.124Z,18.69
2018-07-06T00:20:23.261Z,18.65
2018-07-06T00:21:50.579Z,18.60
2018-07-06T00:23:17.636Z,18.58
2018-07-06T00:24:46.079Z,18.56
2018-07-06T00:26:13.343Z,18.52
2018-07-06T00:27:39.941Z,18.44
2018-07-06T00:29:07.529Z,18.38
2018-07-06T00:30:35.855Z,18.35
2018-07-06T00:32:03.199Z,18.31
2018-07-06T00:33:29.359Z,18.34
2018-07-06T00:34:56.239Z,18.31
2018-07-06T00:36:23.632Z,18.27
2018-07-06T00:37:51.631Z,18.25
2018-07-06T00:39:18.610Z,18.24
2018-07-06T00:40:44.652Z,18.19
2018-07-06T00:42:12.239Z,18.16
2018-07-06T00:43:39.357Z,18.13
2018-07-06T00:45:06.717Z,18.11
2018-07-06T00:46:34.400Z,18.14
2018-07-06T00:48:01.660Z,18.16
2018-07-06T00:49:27.928Z,18.21
2018-07-06T00:50:56.075Z,18.26
2018-07-06T00:52:22.321Z,18.23
2018-07-06T00:53:50.743Z,18.26
2018-07-06T00:55:17.003Z,18.25
2018-07-06T00:56:45.546Z,18.22
2018-07-06T00:58:11.692Z,18.21
2018-07-06T00:59:40.269Z,18.22
2018-07-06T01:01:07.706Z,18.22
2018-07-06T01:02:33.624Z,18.23
2018-07-06T01:04:01.897Z,18.19
2018-07-06T01:05:29.170Z,18.13
2018-07-06T01:06:56.398Z,18.09
2018-07-06T01:08:23.973Z,18.04
2018-07-06T01:09:50.473Z,18.06
2018-07-06T01:11:19.066Z,18.06
2018-07-06T01:12:44.764Z,18.04
2018-07-06T01:14:13.246Z,18.07
2018-07-06T01:15:39.465Z,18.08
2018-07-06T01:17:07.527Z,18.10
2018-07-06T01:18:34.974Z,18.06
2018-07-06T01:20:02.404Z,18.06
2018-07-06T01:21:28.810Z,18.06
2018-07-06T01:22:57.297Z,18.09
2018-07-06T01:24:23.690Z,18.10
2018-07-06T01:25:52.128Z,18.13
2018-07-06T01:27:18.461Z,18.11
2018-07-06T01:28:45.575Z,18.07
2018-07-06T01:30:13.001Z,18.03
2018-07-06T01:31:41.432Z,18.05
2018-07-06T01:33:08.791Z,18.01
2018-07-06T01:34:34.981Z,18.01
2018-07-06T01:36:03.615Z,17.99
2018-07-06T01:37:31.041Z,18.02
2018-07-06T01:38:57.372Z,18.01
2018-07-06T01:40:24.373Z,18.04
2018-07-06T01:41:52.597Z,18.05
2018-07-06T01:43:18.943Z,18.04
2018-07-06T01:44:46.512Z,18.05
2018-07-06T01:46:15.197Z,18.05
2018-07-06T01:47:42.666Z,18.02
2018-07-06T01:49:09.009Z,17.98
2018-07-06T01:50:36.360Z,17.93
2018-07-06T01:52:03.658Z,17.91
2018-07-06T01:53:30.954Z,17.91
2018-07-06T01:54:58.490Z,17.91
2018-07-06T01:56:25.762Z,17.93
2018-07-06T01:57:53.159Z,17.93
2018-07-06T01:59:20.615Z,17.94
2018-07-06T02:00:48.022Z,17.92
2018-07-06T02:02:16.452Z,17.90
2018-07-06T02:03:42.985Z,17.91
2018-07-06T02:05:10.474Z,17.92
2018-07-06T02:06:37.927Z,17.90
2018-07-06T02:08:06.286Z,17.94
2018-07-06T02:09:38.715Z,17.90
2018-07-06T02:10:59.966Z,17.91
2018-07-06T02:12:27.459Z,17.93
2018-07-06T02:13:56.029Z,17.92
2018-07-06T02:15:23.577Z,17.92
2018-07-06T02:16:50.783Z,17.96
2018-07-06T02:18:18.068Z,17.99
2018-07-06T02:19:45.272Z,18.01
2018-07-06T02:21:11.497Z,17.99
2018-07-06T02:22:39.990Z,17.94
2018-07-06T02:24:06.495Z,17.94
2018-07-06T02:25:33.950Z,17.97
2018-07-06T02:27:01.282Z,17.98
2018-07-06T02:28:29.760Z,17.99
2018-07-06T02:29:56.151Z,17.97
2018-07-06T02:31:24.840Z,17.97
2018-07-06T02:32:51.262Z,17.94
2018-07-06T02:34:19.491Z,17.93
2018-07-06T02:35:47.016Z,17.91
2018-07-06T02:37:14.483Z,17.89
2018-07-06T02:38:40.582Z,17.89
2018-07-06T02:40:07.865Z,17.87
2018-07-06T02:41:36.295Z,17.83
2018-07-06T02:43:03.384Z,17.85
2018-07-06T02:44:30.303Z,17.82
2018-07-06T02:45:57.858Z,17.81
2018-07-06T02:47:24.332Z,17.76
2018-07-06T02:48:51.601Z,17.74
2018-07-06T02:50:18.981Z,17.72
2018-07-06T02:51:47.540Z,17.68
2018-07-06T02:53:14.104Z,17.70
2018-07-06T02:54:41.500Z,17.74
2018-07-06T02:56:08.975Z,17.70
2018-07-06T02:57:36.489Z,17.67
2018-07-06T02:59:04.040Z,17.67
2018-07-06T03:00:32.344Z,17.67
2018-07-06T03:01:58.668Z,17.67
2018-07-06T03:03:26.992Z,17.72
2018-07-06T03:04:53.404Z,17.74
2018-07-06T03:06:21.031Z,17.74
2018-07-06T03:07:48.404Z,17.68
2018-07-06T03:09:16.970Z,17.71
2018-07-06T03:10:44.311Z,17.73
2018-07-06T03:12:11.643Z,17.74
2018-07-06T03:13:37.840Z,17.76
2018-07-06T03:15:05.397Z,17.71
2018-07-06T03:16:33.869Z,17.69
2018-07-06T03:18:01.199Z,17.62
2018-07-06T03:19:28.407Z,17.60
2018-07-06T03:20:54.976Z,17.59
2018-07-06T03:22:22.382Z,17.59
2018-07-06T03:23:50.997Z,17.63
2018-07-06T03:25:17.347Z,17.64
2018-07-06T03:26:44.859Z,17.58
2018-07-06T03:28:12.340Z,17.54
2018-07-06T03:29:39.629Z,17.52
2018-07-06T03:31:06.947Z,17.55
2018-07-06T03:32:34.334Z,17.57
2018-07-06T03:34:02.869Z,17.59
2018-07-06T03:35:29.780Z,17.60
2018-07-06T03:36:57.228Z,17.56
2018-07-06T03:38:24.562Z,17.55
2018-07-06T03:39:50.910Z,17.55
2018-07-06T03:41:19.173Z,17.56
2018-07-06T03:42:45.586Z,17.57
2018-07-06T03:44:13.770Z,17.55
2018-07-06T03:45:40.122Z,17.53
2018-07-06T03:47:07.533Z,17.56
2018-07-06T03:48:34.766Z,17.58
2018-07-06T03:50:02.127Z,17.64
2018-07-06T03:51:29.469Z,17.70
2018-07-06T03:52:56.851Z,17.73
2018-07-06T03:54:25.310Z,17.69
2018-07-06T03:55:52.806Z,17.69
2018-07-06T03:57:19.277Z,17.66
2018-07-06T03:58:47.649Z,17.69
2018-07-06T04:00:15.127Z,17.74
2018-07-06T04:01:42.362Z,17.75
2018-07-06T04:03:08.844Z,17.76
2018-07-06T04:04:37.301Z,17.71
2018-07-06T04:06:04.782Z,17.68
2018-07-06T04:07:31.235Z,17.69
2018-07-06T04:08:59.482Z,17.73
2018-07-06T04:10:25.870Z,17.76
2018-07-06T04:11:53.121Z,17.76
2018-07-06T04:13:21.558Z,17.74
2018-07-06T04:14:48.970Z,17.73
2018-07-06T04:16:15.333Z,17.71
2018-07-06T04:17:43.662Z,17.70
2018-07-06T04:19:09.523Z,17.72
2018-07-06T04:20:37.691Z,17.74
2018-07-06T04:22:04.010Z,17.78
2018-07-06T04:23:31.353Z,17.81
2018-07-06T04:24:59.436Z,17.81
2018-07-06T04:26:25.477Z,17.83
2018-07-06T04:27:52.560Z,17.86
2018-07-06T04:29:19.590Z,17.89
2018-07-06T04:30:46.712Z,17.90
2018-07-06T04:32:15.108Z,17.88
2018-07-06T04:33:41.502Z,17.87
2018-07-06T04:35:08.739Z,17.84
2018-07-06T04:36:36.205Z,17.85
2018-07-06T04:38:04.608Z,17.86
2018-07-06T04:39:30.579Z,17.88
2018-07-06T04:40:58.834Z,17.88
2018-07-06T04:42:25.954Z,17.86
2018-07-06T04:43:52.514Z,17.89
2018-07-06T04:45:20.078Z,17.89
2018-07-06T04:46:48.455Z,17.88
2018-07-06T04:48:14.430Z,17.87
2018-07-06T04:49:41.726Z,17.88
2018-07-06T04:51:10.244Z,17.88
2018-07-06T04:52:36.180Z,17.91
2018-07-06T04:54:09.767Z,17.93
2018-07-06T04:55:31.098Z,17.91
2018-07-06T04:56:57.878Z,17.93
2018-07-06T04:58:24.650Z,17.94
2018-07-06T04:59:52.079Z,18.01
2018-07-06T05:01:20.390Z,18.06
2018-07-06T05:02:46.499Z,18.07
2018-07-06T05:04:14.140Z,18.10
2018-07-06T05:05:41.399Z,18.09
2018-07-06T05:07:08.715Z,18.11
2018-07-06T05:08:36.233Z,18.15
2018-07-06T05:10:04.799Z,18.19
2018-07-06T05:11:31.189Z,18.23
2018-07-06T05:12:59.353Z,18.28
2018-07-06T05:14:26.512Z,18.32
2018-07-06T05:15:53.962Z,18.37
2018-07-06T05:17:21.255Z,18.40
2018-07-06T05:18:47.435Z,18.43
2018-07-06T05:20:16.053Z,18.44
2018-07-06T05:21:42.337Z,18.48
2018-07-06T05:23:10.358Z,18.51
2018-07-06T05:24:36.817Z,18.54
2018-07-06T05:26:03.961Z,18.58
2018-07-06T05:27:31.755Z,18.58
2018-07-06T05:28:59.306Z,18.61
2018-07-06T05:30:25.655Z,18.60
2018-07-06T05:31:53.181Z,18.58
2018-07-06T05:33:21.688Z,18.56
2018-07-06T05:34:48.319Z,18.50
2018-07-06T05:36:15.796Z,18.47
2018-07-06T05:37:44.128Z,18.52
2018-07-06T05:39:10.501Z,18.57
2018-07-06T05:40:38.074Z,18.58
2018-07-06T05:42:05.476Z,18.62
2018-07-06T05:43:34.004Z,18.63
2018-07-06T05:45:01.504Z,18.64
2018-07-06T05:46:28.006Z,18.65
2018-07-06T05:47:54.983Z,18.63
2018-07-06T05:49:22.181Z,18.62
2018-07-06T05:50:49.536Z,18.64
2018-07-06T05:52:16.328Z,18.68
2018-07-06T05:53:44.727Z,18.68
2018-07-06T05:55:11.219Z,18.71
2018-07-06T05:56:38.412Z,18.72
2018-07-06T05:58:06.926Z,18.71
2018-07-06T05:59:33.344Z,18.71
2018-07-06T06:01:00.583Z,18.69
2018-07-06T06:02:28.950Z,18.71
2018-07-06T06:03:56.327Z,18.72
2018-07-06T06:05:22.938Z,18.74
2018-07-06T06:06:51.455Z,18.75
2018-07-06T06:08:18.210Z,18.74
2018-07-06T06:09:43.812Z,18.73
2018-07-06T06:11:12.342Z,18.74
2018-07-06T06:12:38.755Z,18.72
2018-07-06T06:14:06.024Z,18.72
2018-07-06T06:15:33.549Z,18.74
2018-07-06T06:17:01.738Z,18.77
2018-07-06T06:18:29.335Z,18.83
2018-07-06T06:19:56.634Z,18.84
2018-07-06T06:21:22.909Z,18.86
2018-07-06T06:22:51.191Z,18.83
2018-07-06T06:24:17.637Z,18.82
2018-07-06T06:25:46.032Z,18.80
2018-07-06T06:27:13.272Z,18.80
2018-07-06T06:28:40.777Z,18.85
2018-07-06T06:30:08.290Z,18.91
2018-07-06T06:31:34.711Z,18.95
2018-07-06T06:33:03.196Z,18.96
2018-07-06T06:34:30.708Z,18.97
2018-07-06T06:35:56.602Z,18.97
2018-07-06T06:37:23.210Z,18.98
2018-07-06T06:38:50.743Z,18.99
2018-07-06T06:40:18.044Z,19.02
2018-07-06T06:41:46.418Z,19.05
2018-07-06T06:43:12.380Z,19.06
2018-07-06T06:44:39.732Z,19.07
2018-07-06T06:46:06.723Z,19.10
2018-07-06T06:47:35.288Z,19.09
2018-07-06T06:49:01.684Z,19.11
2018-07-06T06:50:29.056Z,19.15
2018-07-06T06:51:56.072Z,19.17
2018-07-06T06:53:23.594Z,19.17
2018-07-06T06:54:50.989Z,19.18
2018-07-06T06:56:18.854Z,19.17
2018-07-06T06:57:45.018Z,19.14
2018-07-06T06:59:12.274Z,19.13
2018-07-06T07:00:40.855Z,19.14
2018-07-06T07:02:06.748Z,19.14
2018-07-06T07:03:34.344Z,19.18
2018-07-06T07:05:01.133Z,19.23
2018-07-06T07:06:29.628Z,19.30
2018-07-06T07:07:55.630Z,19.37
2018-07-06T07:09:23.632Z,19.44
2018-07-06T07:10:51.003Z,19.50
2018-07-06T07:12:17.506Z,19.55
2018-07-06T07:13:44.540Z,19.63
2018-07-06T07:15:11.731Z,19.69
2018-07-06T07:16:40.197Z,19.68
2018-07-06T07:18:05.981Z,19.68
2018-07-06T07:19:34.406Z,19.69
2018-07-06T07:21:01.598Z,19.67
2018-07-06T07:22:28.925Z,19.69
2018-07-06T07:23:55.280Z,19.72
2018-07-06T07:25:21.949Z,19.71
2018-07-06T07:26:50.471Z,19.71
2018-07-06T07:28:18.121Z,19.74
2018-07-06T07:29:45.672Z,19.78
2018-07-06T07:31:11.574Z,19.80
2018-07-06T07:32:39.841Z,19.84
2018-07-06T07:34:06.741Z,19.83
2018-07-06T07:35:33.199Z,19.86
2018-07-06T07:37:01.624Z,19.93
2018-07-06T07:38:27.546Z,19.92
2018-07-06T07:39:55.952Z,19.99
2018-07-06T07:41:23.575Z,20.04
2018-07-06T07:42:51.014Z,20.11
2018-07-06T07:44:18.484Z,20.17
2018-07-06T07:45:44.436Z,20.27
2018-07-06T07:47:11.492Z,20.39
2018-07-06T07:48:39.345Z,20.48
2018-07-06T07:50:06.790Z,20.60
2018-07-06T07:51:32.598Z,20.71
2018-07-06T07:52:59.979Z,20.87
2018-07-06T07:54:27.808Z,20.97
2018-07-06T07:55:54.267Z,21.04
2018-07-06T07:57:21.907Z,21.10
2018-07-06T07:58:49.504Z,21.05
2018-07-06T08:00:17.053Z,20.98
2018-07-06T08:01:43.999Z,20.98
2018-07-06T08:03:11.765Z,20.99
2018-07-06T08:04:39.034Z,21.03
2018-07-06T08:06:05.966Z,21.06
2018-07-06T08:07:33.498Z,21.13
2018-07-06T08:09:01.170Z,21.18
2018-07-06T08:10:28.541Z,21.17
2018-07-06T08:11:55.319Z,21.14
2018-07-06T08:13:21.954Z,21.11
2018-07-06T08:14:49.109Z,21.18
2018-07-06T08:16:16.698Z,21.31
2018-07-06T08:17:43.756Z,21.38
2018-07-06T08:19:12.272Z,21.47
2018-07-06T08:20:39.583Z,21.61
2018-07-06T08:22:05.959Z,21.77
2018-07-06T08:23:33.597Z,21.82
2018-07-06T08:25:01.521Z,21.87
2018-07-06T08:26:28.158Z,21.94
2018-07-06T08:27:55.416Z,21.90
2018-07-06T08:29:22.233Z,21.82
2018-07-06T08:30:49.847Z,21.79
2018-07-06T08:32:17.129Z,21.80
2018-07-06T08:33:44.725Z,21.77
2018-07-06T08:35:12.166Z,21.78
2018-07-06T08:36:40.281Z,21.79
2018-07-06T08:38:06.865Z,21.89
2018-07-06T08:39:34.135Z,21.95
2018-07-06T08:41:02.435Z,21.98
2018-07-06T08:42:28.916Z,21.96
2018-07-06T08:43:55.629Z,21.98
2018-07-06T08:45:23.235Z,21.99
2018-07-06T08:46:50.253Z,22.05
2018-07-06T08:48:17.739Z,22.16
2018-07-06T08:49:46.120Z,22.28
2018-07-06T08:51:12.360Z,22.39
2018-07-06T08:52:40.439Z,22.46
2018-07-06T08:54:08.025Z,22.42
2018-07-06T08:55:35.583Z,22.41
2018-07-06T08:57:01.603Z,22.47
2018-07-06T08:58:30.044Z,22.50
2018-07-06T08:59:56.139Z,22.56
2018-07-06T09:01:24.346Z,22.64
2018-07-06T09:02:50.745Z,22.74
2018-07-06T09:04:17.933Z,22.85
2018-07-06T09:05:45.368Z,22.93
2018-07-06T09:07:13.662Z,22.98
2018-07-06T09:08:40.063Z,22.97
2018-07-06T09:10:07.476Z,22.97
2018-07-06T09:11:34.436Z,23.00
2018-07-06T09:13:01.923Z,23.05
2018-07-06T09:14:29.359Z,23.07
2018-07-06T09:15:56.816Z,23.08
2018-07-06T09:17:23.828Z,23.13
2018-07-06T09:18:51.375Z,23.18
2018-07-06T09:20:19.567Z,23.25
2018-07-06T09:21:45.293Z,23.36
2018-07-06T09:23:13.592Z,23.43
2018-07-06T09:24:41.069Z,23.47
2018-07-06T09:26:07.215Z,23.53
2018-07-06T09:27:35.396Z,23.57
2018-07-06T09:29:02.466Z,23.57
2018-07-06T09:30:28.447Z,23.55
2018-07-06T09:31:55.743Z,23.56
2018-07-06T09:33:23.043Z,23.56
2018-07-06T09:34:50.630Z,23.57
2018-07-06T09:36:18.218Z,23.56
2018-07-06T09:37:45.580Z,23.54
2018-07-06T09:39:13.180Z,23.54
2018-07-06T09:40:41.711Z,23.56
2018-07-06T09:42:07.998Z,23.60
2018-07-06T09:43:36.555Z,23.60
2018-07-06T09:45:02.570Z,23.60
2018-07-06T09:46:29.801Z,23.63
2018-07-06T09:47:57.066Z,23.67
2018-07-06T09:49:24.368Z,23.77
2018-07-06T09:50:52.524Z,23.87
2018-07-06T09:52:19.076Z,23.93
2018-07-06T09:53:46.664Z,23.95
2018-07-06T09:55:15.102Z,23.98
2018-07-06T09:56:41.647Z,24.02
2018-07-06T09:58:10.307Z,24.03
2018-07-06T09:59:36.332Z,24.07
2018-07-06T10:01:03.529Z,24.15
2018-07-06T10:02:31.797Z,24.17
2018-07-06T10:03:58.114Z,24.18
2018-07-06T10:05:25.338Z,24.17
2018-07-06T10:06:53.332Z,24.17
2018-07-06T10:08:19.568Z,24.19
2018-07-06T10:09:47.019Z,24.20
2018-07-06T10:11:15.560Z,24.25
2018-07-06T10:12:41.887Z,24.29
2018-07-06T10:14:09.279Z,24.33
2018-07-06T10:15:36.521Z,24.35
2018-07-06T10:17:04.661Z,24.37
2018-07-06T10:18:31.130Z,24.41
2018-07-06T10:19:58.589Z,24.43
2018-07-06T10:21:28.916Z,24.43
2018-07-06T10:22:53.333Z,24.44
2018-07-06T10:24:20.907Z,24.47
2018-07-06T10:25:49.529Z,24.48
2018-07-06T10:27:16.097Z,24.52
2018-07-06T10:28:43.593Z,24.55
2018-07-06T10:30:11.191Z,24.56
2018-07-06T10:31:38.739Z,24.60
2018-07-06T10:33:06.294Z,24.62
2018-07-06T10:34:34.861Z,24.63
2018-07-06T10:36:02.251Z,24.63
2018-07-06T10:37:28.751Z,24.67
2018-07-06T10:38:56.142Z,24.69
2018-07-06T10:40:23.745Z,24.73
2018-07-06T10:41:51.289Z,24.77
2018-07-06T10:43:19.885Z,24.78
2018-07-06T10:44:46.299Z,24.83
2018-07-06T10:46:13.774Z,24.89
2018-07-06T10:47:41.834Z,24.93
2018-07-06T10:49:08.379Z,24.95
2018-07-06T10:50:36.778Z,24.96
2018-07-06T10:52:02.894Z,24.99
2018-07-06T10:53:30.169Z,25.06
2018-07-06T10:54:57.164Z,25.11
2018-07-06T10:56:25.420Z,25.22
2018-07-06T10:57:51.433Z,25.36
2018-07-06T10:59:18.937Z,25.51
2018-07-06T11:00:46.494Z,25.67
2018-07-06T11:02:14.071Z,25.83
2018-07-06T11:03:42.619Z,25.96
2018-07-06T11:05:08.909Z,26.06
2018-07-06T11:06:36.422Z,26.12
2018-07-06T11:08:05.033Z,26.20
2018-07-06T11:09:32.592Z,26.31
2018-07-06T11:10:59.125Z,26.47
2018-07-06T11:12:27.477Z,26.64
2018-07-06T11:13:54.116Z,26.71
2018-07-06T11:15:21.718Z,26.86
2018-07-06T11:16:50.389Z,26.92
2018-07-06T11:18:16.564Z,27.04
2018-07-06T11:19:44.037Z,27.22
2018-07-06T11:21:11.393Z,27.28
2018-07-06T11:22:38.900Z,27.32
2018-07-06T11:24:06.204Z,27.48
2018-07-06T11:25:33.596Z,27.61
2018-07-06T11:27:00.651Z,27.80
2018-07-06T11:28:28.906Z,27.87
2018-07-06T11:29:56.486Z,27.95
2018-07-06T11:31:24.061Z,28.00
2018-07-06T11:32:50.446Z,28.11
2018-07-06T11:34:18.880Z,28.27
2018-07-06T11:35:45.530Z,28.23
2018-07-06T11:37:13.289Z,28.08
2018-07-06T11:38:40.867Z,28.01
2018-07-06T11:40:09.314Z,28.05
2018-07-06T11:41:35.801Z,28.13
2018-07-06T11:43:03.355Z,28.37
2018-07-06T11:44:30.858Z,28.48
2018-07-06T11:45:58.177Z,28.39
2018-07-06T11:47:26.385Z,28.48
2018-07-06T11:48:53.155Z,28.61
2018-07-06T11:50:20.801Z,28.71
2018-07-06T11:51:48.125Z,28.72
2018-07-06T11:53:15.800Z,28.89
2018-07-06T11:54:43.388Z,29.10
2018-07-06T11:56:11.001Z,29.07
2018-07-06T11:57:39.685Z,29.02
2018-07-06T11:59:06.199Z,29.19
2018-07-06T12:00:33.460Z,29.47
2018-07-06T12:02:01.069Z,29.47
2018-07-06T12:03:29.304Z,29.47
2018-07-06T12:04:55.684Z,29.41
2018-07-06T12:06:23.065Z,29.54
2018-07-06T12:07:50.349Z,29.56
2018-07-06T12:09:17.781Z,29.73
2018-07-06T12:10:46.479Z,29.91
2018-07-06T12:12:12.989Z,29.98
2018-07-06T12:13:40.437Z,29.78
2018-07-06T12:15:09.079Z,29.74
2018-07-06T12:16:35.410Z,29.80
2018-07-06T12:18:02.902Z,29.71
2018-07-06T12:19:31.698Z,29.80
2018-07-06T12:20:59.151Z,30.02
2018-07-06T12:22:25.638Z,30.05
2018-07-06T12:23:53.153Z,30.02
2018-07-06T12:25:21.604Z,30.13
2018-07-06T12:26:48.110Z,30.16
2018-07-06T12:28:15.733Z,30.17
2018-07-06T12:29:43.192Z,30.03
2018-07-06T12:31:11.663Z,30.04
2018-07-06T12:32:39.283Z,29.90
2018-07-06T12:34:05.968Z,29.88
2018-07-06T12:35:33.255Z,29.99
2018-07-06T12:37:00.422Z,29.96
2018-07-06T12:38:27.961Z,29.74
2018-07-06T12:39:56.424Z,29.69
2018-07-06T12:41:22.851Z,29.84
2018-07-06T12:42:51.460Z,30.03
2018-07-06T12:44:12.165Z,30.24
2018-07-06T12:45:46.561Z,30.36
2018-07-06T12:47:13.092Z,30.24
2018-07-06T12:48:40.760Z,30.09
2018-07-06T12:50:08.228Z,29.94
2018-07-06T12:51:36.865Z,29.95
2018-07-06T12:53:03.340Z,29.96
2018-07-06T12:54:30.791Z,29.95
2018-07-06T12:55:58.448Z,29.84
2018-07-06T12:57:26.018Z,29.80
2018-07-06T12:58:54.338Z,29.65
2018-07-06T13:00:20.473Z,29.62
2018-07-06T13:01:48.125Z,29.49
2018-07-06T13:03:15.400Z,29.15
2018-07-06T13:04:43.846Z,28.97
2018-07-06T13:06:10.516Z,28.87
2018-07-06T13:07:38.200Z,28.90
2018-07-06T13:09:05.730Z,28.87
2018-07-06T13:10:33.128Z,28.88
2018-07-06T13:12:01.567Z,28.86
2018-07-06T13:13:27.748Z,28.78
2018-07-06T13:14:55.207Z,28.76
2018-07-06T13:16:22.814Z,28.65
2018-07-06T13:17:50.312Z,28.46
2018-07-06T13:19:17.821Z,28.26
2018-07-06T13:20:45.078Z,28.19
2018-07-06T13:22:12.565Z,28.05
2018-07-06T13:23:41.025Z,27.99
2018-07-06T13:25:07.753Z,27.95
2018-07-06T13:26:35.916Z,27.78
2018-07-06T13:28:02.389Z,27.77
2018-07-06T13:29:29.492Z,27.77
2018-07-06T13:30:56.962Z,27.62
2018-07-06T13:32:24.533Z,27.49
2018-07-06T13:33:52.058Z,27.34
2018-07-06T13:35:19.373Z,27.33
2018-07-06T13:36:49.986Z,27.34
2018-07-06T13:38:14.601Z,27.39
2018-07-06T13:39:42.026Z,27.32
2018-07-06T13:41:09.720Z,27.12
2018-07-06T13:42:37.925Z,27.04
2018-07-06T13:44:04.329Z,27.04
2018-07-06T13:45:32.100Z,26.94
2018-07-06T13:46:59.511Z,26.89
2018-07-06T13:48:27.878Z,26.80
2018-07-06T13:49:55.382Z,26.66
2018-07-06T13:51:21.679Z,26.53
2018-07-06T13:52:49.050Z,26.41
2018-07-06T13:54:16.440Z,26.32
2018-07-06T13:55:45.169Z,26.28
2018-07-06T13:57:11.719Z,26.20
2018-07-06T13:58:39.546Z,26.20
2018-07-06T14:00:07.073Z,26.26
2018-07-06T14:01:34.399Z,26.31
2018-07-06T14:03:01.385Z,26.30
2018-07-06T14:04:28.634Z,26.20
2018-07-06T14:05:55.942Z,26.22
2018-07-06T14:07:24.453Z,26.22
2018-07-06T14:08:50.978Z,26.13
2018-07-06T14:10:19.470Z,26.06
2018-07-06T14:11:45.607Z,26.04
2018-07-06T14:13:13.029Z,25.97
2018-07-06T14:14:41.624Z,25.92
2018-07-06T14:16:08.014Z,25.95
2018-07-06T14:17:36.458Z,25.98
2018-07-06T14:19:02.778Z,25.89
2018-07-06T14:20:29.991Z,25.88
2018-07-06T14:21:58.495Z,25.86
2018-07-06T14:23:25.669Z,25.89
2018-07-06T14:24:52.044Z,25.89
2018-07-06T14:26:19.390Z,25.84
2018-07-06T14:27:46.618Z,25.83
2018-07-06T14:29:15.069Z,25.83
2018-07-06T14:30:41.760Z,25.86
2018-07-06T14:32:10.195Z,25.86
2018-07-06T14:33:36.704Z,25.84
2018-07-06T14:35:04.073Z,25.77
2018-07-06T14:36:31.764Z,25.67
2018-07-06T14:37:59.117Z,25.56
2018-07-06T14:39:26.606Z,25.48
2018-07-06T14:40:53.833Z,25.47
2018-07-06T14:42:21.325Z,25.52
2018-07-06T14:43:48.676Z,25.52
2018-07-06T14:45:17.037Z,25.56
2018-07-06T14:46:43.039Z,25.53
2018-07-06T14:48:11.636Z,25.55
2018-07-06T14:49:38.201Z,25.46
2018-07-06T14:51:05.464Z,25.45
2018-07-06T14:52:32.678Z,25.47
2018-07-06T14:54:01.005Z,25.49
2018-07-06T14:55:27.451Z,25.47
2018-07-06T14:56:55.976Z,25.47
2018-07-06T14:58:22.283Z,25.45
2018-07-06T14:59:49.691Z,25.41
2018-07-06T15:01:18.156Z,25.28
2018-07-06T15:02:44.439Z,25.26
2018-07-06T15:04:11.816Z,25.30
2018-07-06T15:05:40.254Z,25.29
2018-07-06T15:07:06.615Z,25.36
2018-07-06T15:08:34.734Z,25.31
2018-07-06T15:10:02.248Z,25.25
2018-07-06T15:11:29.590Z,25.26
2018-07-06T15:12:57.012Z,25.25
2018-07-06T15:14:23.157Z,25.20
2018-07-06T15:15:50.749Z,25.16
2018-07-06T15:17:18.385Z,25.11
2018-07-06T15:18:47.001Z,25.10
2018-07-06T15:20:13.319Z,25.05
2018-07-06T15:21:41.810Z,25.02
2018-07-06T15:23:07.803Z,25.00
2018-07-06T15:24:36.476Z,24.96
2018-07-06T15:26:03.095Z,24.93
2018-07-06T15:27:30.565Z,24.87
2018-07-06T15:28:58.940Z,24.89
2018-07-06T15:30:25.093Z,24.86
2018-07-06T15:31:52.628Z,24.85
2018-07-06T15:33:20.068Z,24.84
2018-07-06T15:34:47.480Z,24.84
2018-07-06T15:36:16.029Z,24.83
2018-07-06T15:37:42.398Z,24.87
2018-07-06T15:39:09.817Z,24.89
2018-07-06T15:40:37.285Z,24.88
2018-07-06T15:42:04.899Z,24.88
2018-07-06T15:43:32.601Z,24.89
2018-07-06T15:45:00.102Z,24.89
2018-07-06T15:46:27.563Z,24.86
2018-07-06T15:47:55.034Z,24.87
2018-07-06T15:49:22.459Z,24.83
2018-07-06T15:50:49.796Z,24.77
2018-07-06T15:52:18.103Z,24.72
2018-07-06T15:53:47.611Z,24.65
2018-07-06T15:55:12.046Z,24.55
2018-07-06T15:56:39.477Z,24.51
2018-07-06T15:58:07.149Z,24.48
2018-07-06T15:59:35.498Z,24.50
2018-07-06T16:01:01.991Z,24.54
2018-07-06T16:02:29.412Z,24.56
2018-07-06T16:03:57.673Z,24.60
2018-07-06T16:05:24.119Z,24.59
2018-07-06T16:06:51.164Z,24.52
2018-07-06T16:08:18.487Z,24.50
2018-07-06T16:09:45.878Z,24.49
2018-07-06T16:11:13.062Z,24.50
2018-07-06T16:12:40.436Z,24.44
2018-07-06T16:14:08.906Z,24.40
2018-07-06T16:15:35.231Z,24.39
2018-07-06T16:17:02.694Z,24.36
2018-07-06T16:18:30.224Z,24.32
2018-07-06T16:19:58.424Z,24.23
2018-07-06T16:21:24.694Z,24.20
2018-07-06T16:22:52.042Z,24.21
2018-07-06T16:24:19.649Z,24.19
2018-07-06T16:25:47.033Z,24.19
2018-07-06T16:27:15.505Z,24.20
2018-07-06T16:28:42.967Z,24.22
2018-07-06T16:30:09.495Z,24.23
2018-07-06T16:31:37.861Z,24.22
2018-07-06T16:33:04.305Z,24.19
2018-07-06T16:34:32.529Z,24.18
2018-07-06T16:35:59.867Z,24.16
2018-07-06T16:37:26.153Z,24.10
2018-07-06T16:38:53.619Z,24.06
2018-07-06T16:40:21.518Z,24.00
2018-07-06T16:41:48.183Z,23.97
2018-07-06T16:43:16.779Z,23.99
2018-07-06T16:44:43.288Z,23.97
2018-07-06T16:46:11.559Z,23.99
2018-07-06T16:47:38.081Z,23.93
2018-07-06T16:49:05.581Z,23.91
2018-07-06T16:50:33.165Z,23.88
2018-07-06T16:52:00.599Z,23.86
2018-07-06T16:53:28.173Z,23.86
2018-07-06T16:54:55.293Z,23.84
2018-07-06T16:56:22.828Z,23.82
2018-07-06T16:57:50.226Z,23.78
2018-07-06T16:59:17.852Z,23.71
2018-07-06T17:00:46.352Z,23.71
2018-07-06T17:02:12.947Z,23.68
2018-07-06T17:03:41.286Z,23.66
2018-07-06T17:05:08.580Z,23.60
2018-07-06T17:06:35.182Z,23.55
2018-07-06T17:08:02.598Z,23.55
2018-07-06T17:09:30.121Z,23.54
2018-07-06T17:10:57.647Z,23.54
2018-07-06T17:12:26.190Z,23.53
2018-07-06T17:13:52.887Z,23.49
2018-07-06T17:15:21.140Z,23.44
2018-07-06T17:16:47.766Z,23.36
2018-07-06T17:18:14.847Z,23.33
2018-07-06T17:19:42.521Z,23.30
2018-07-06T17:21:09.992Z,23.30
2018-07-06T17:22:37.497Z,23.27
2018-07-06T17:24:05.062Z,23.24
2018-07-06T17:25:32.416Z,23.24
2018-07-06T17:26:59.925Z,23.23
2018-07-06T17:28:27.366Z,23.18
2018-07-06T17:29:55.963Z,23.12
2018-07-06T17:31:22.458Z,23.09
2018-07-06T17:32:51.015Z,23.10
2018-07-06T17:34:17.409Z,23.08
2018-07-06T17:37:13.495Z,22.89
2018-07-06T17:38:39.749Z,22.87
2018-07-06T17:40:08.365Z,22.84
2018-07-06T17:41:34.537Z,22.83
2018-07-06T17:43:01.831Z,22.81
2018-07-06T17:44:29.281Z,22.75
2018-07-06T17:45:57.749Z,22.75
2018-07-06T17:47:24.104Z,22.74
2018-07-06T17:48:51.249Z,22.62
2018-07-06T17:50:19.820Z,22.54
2018-07-06T17:51:46.952Z,22.47
2018-07-06T17:53:13.251Z,22.44
2018-07-06T17:54:40.646Z,22.45
2018-07-06T17:56:09.251Z,22.44
2018-07-06T17:57:36.360Z,22.43
2018-07-06T17:59:03.782Z,22.42
2018-07-06T18:00:29.997Z,22.40
2018-07-06T18:01:57.410Z,22.36
2018-07-06T18:03:24.781Z,22.34
2018-07-06T18:04:51.821Z,22.35
2018-07-06T18:06:19.272Z,22.34
2018-07-06T18:07:47.361Z,22.30
2018-07-06T18:09:14.851Z,22.27
2018-07-06T18:10:41.517Z,22.25
2018-07-06T18:12:09.655Z,22.24
2018-07-06T18:13:35.989Z,22.20
2018-07-06T18:15:04.400Z,22.19
2018-07-06T18:16:30.530Z,22.16
2018-07-06T18:17:57.935Z,22.13
2018-07-06T18:19:25.377Z,22.11
2018-07-06T18:20:53.047Z,22.11
2018-07-06T18:22:20.532Z,22.07
2018-07-06T18:23:48.079Z,22.04
2018-07-06T18:25:15.617Z,22.00
2018-07-06T18:26:42.945Z,21.97
2018-07-06T18:28:10.307Z,21.93
2018-07-06T18:29:38.456Z,21.88
2018-07-06T18:31:04.875Z,21.83
2018-07-06T18:32:32.321Z,21.78
2018-07-06T18:34:00.684Z,21.71
2018-07-06T18:35:27.120Z,21.69
2018-07-06T18:36:54.621Z,21.67
2018-07-06T18:38:21.974Z,21.63
2018-07-06T18:39:49.409Z,21.62
2018-07-06T18:41:16.830Z,21.58
2018-07-06T18:42:45.356Z,21.55
2018-07-06T18:44:12.862Z,21.55
2018-07-06T18:45:39.292Z,21.56